Time;durP1;ratioP1;P1;durP2;ratioP2;P2;SDS_P1;SDS_P2;PMS_P1;PMS_P2;Temp;Humidity;BMP_temperature;BMP_pressure;BME280_temperature;BME280_humidity;BME280_pressure;Samples;Min_cycle;Max_cycle;Signal;HPM_P1;HPM_P2
2023/07/16 00:02:01;;;;;;;106.03;101.03;;;;;;;26.58;36.97;100762.34;5095475;28;20069;-73
2023/07/16 00:04:26;;;;;;;104.95;100.13;;;;;;;26.55;36.83;100763.84;5093793;28;20028;-73
2023/07/16 00:06:51;;;;;;;107.10;101.57;;;;;;;26.51;36.88;100763.75;5076743;28;20038;-72
2023/07/16 00:09:17;;;;;;;105.82;101.03;;;;;;;26.49;37.30;100765.25;5093782;28;20121;-73
2023/07/16 00:11:42;;;;;;;103.10;98.40;;;;;;;26.46;37.09;100765.91;5094587;28;20044;-73
2023/07/16 00:14:09;;;;;;;104.18;99.47;;;;;;;26.43;37.18;100774.94;5093489;28;20459;-73
2023/07/16 00:16:35;;;;;;;108.72;103.82;;;;;;;26.40;36.85;100770.09;5094795;28;20081;-73
2023/07/16 00:19:00;;;;;;;105.78;100.97;;;;;;;26.36;36.89;100760.88;5094130;28;20028;-73
2023/07/16 00:21:25;;;;;;;106.90;101.95;;;;;;;26.34;37.01;100769.53;5094982;28;20109;-72
2023/07/16 00:23:51;;;;;;;104.32;99.50;;;;;;;26.29;37.14;100770.59;5093319;28;20119;-72
2023/07/16 00:26:16;;;;;;;102.18;97.57;;;;;;;26.27;37.09;100767.34;5076818;28;20047;-72
2023/07/16 00:28:42;;;;;;;105.93;101.05;;;;;;;26.24;37.23;100773.59;5093982;28;20031;-72
2023/07/16 00:31:07;;;;;;;100.63;95.97;;;;;;;26.21;37.38;100774.28;5093308;28;20032;-72
2023/07/16 00:33:33;;;;;;;102.75;98.13;;;;;;;26.19;37.08;100778.56;5094365;28;20054;-73
2023/07/16 00:35:58;;;;;;;102.60;97.72;;;;;;;26.16;36.95;100777.31;5094509;28;20494;-73
2023/07/16 00:38:24;;;;;;;104.65;99.90;;;;;;;26.13;37.04;100777.97;5093140;28;20032;-76
2023/07/16 00:40:49;;;;;;;102.40;97.88;;;;;;;26.10;37.71;100784.22;5075672;28;20024;-73
2023/07/16 00:43:15;;;;;;;103.10;98.53;;;;;;;26.06;37.08;100781.34;5094192;28;20040;-72
2023/07/16 00:45:42;;;;;;;102.60;98.00;;;;;;;26.04;37.19;100780.06;5094630;28;20035;-73
2023/07/16 00:48:08;;;;;;;102.22;97.35;;;;;;;26.01;37.19;100781.56;5093032;28;20024;-73
2023/07/16 00:50:39;;;;;;;101.65;97.05;;;;;;;25.99;37.10;100780.31;5093959;28;20032;-72
2023/07/16 00:53:08;;;;;;;102.85;97.82;;;;;;;25.96;36.98;100784.56;5093258;28;20426;-72
2023/07/16 00:55:35;;;;;;;103.93;98.90;;;;;;;25.92;37.28;100786.41;5093206;28;20032;-72
2023/07/16 00:58:06;;;;;;;99.88;95.40;;;;;;;25.89;37.33;100779.59;5094660;28;20032;-72
2023/07/16 01:00:37;;;;;;;103.25;98.65;;;;;;;25.86;37.32;100783.06;5094595;28;20032;-72
2023/07/16 01:03:05;;;;;;;105.55;100.75;;;;;;;25.83;37.39;100782.91;5093949;28;20089;-72
2023/07/16 01:05:38;;;;;;;98.38;93.78;;;;;;;25.80;37.11;100783.59;5094359;28;20036;-73
2023/07/16 01:08:08;;;;;;;101.13;96.70;;;;;;;25.78;37.19;100783.97;5094283;28;20028;-72
2023/07/16 01:10:34;;;;;;;101.38;96.40;;;;;;;25.75;37.56;100789.38;5093538;28;20024;-72
2023/07/16 01:13:00;;;;;;;98.15;93.63;;;;;;;25.72;37.19;100779.78;5094138;28;20024;-72
2023/07/16 01:15:25;;;;;;;106.18;101.10;;;;;;;25.69;37.37;100789.59;5094032;28;20081;-72
2023/07/16 01:17:51;;;;;;;99.20;94.82;;;;;;;25.68;37.42;100784.41;5092436;28;20028;-72
2023/07/16 01:20:16;;;;;;;99.15;94.70;;;;;;;25.65;37.19;100782.31;5093848;28;20036;-72
2023/07/16 01:22:57;;;;;;;99.13;94.53;;;;;;;25.62;37.43;100780.25;5093959;28;20369;-72
2023/07/16 01:25:34;;;;;;;102.07;97.35;;;;;;;25.59;37.29;100781.75;5093226;28;20047;-72
2023/07/16 01:28:16;;;;;;;104.28;99.10;;;;;;;25.55;37.40;100778.06;5094247;28;20030;-72
2023/07/16 01:30:44;;;;;;;101.40;96.70;;;;;;;25.52;37.17;100781.50;5093882;28;20024;-71
2023/07/16 01:33:13;;;;;;;104.35;99.68;;;;;;;25.51;37.52;100779.09;5094271;28;20040;-72
2023/07/16 01:35:40;;;;;;;100.75;96.20;;;;;;;25.48;37.73;100788.88;5093738;28;20031;-72
2023/07/16 01:38:07;;;;;;;97.20;92.38;;;;;;;25.45;37.17;100789.53;5093288;28;20042;-71
2023/07/16 01:40:32;;;;;;;96.00;91.60;;;;;;;25.43;37.81;100789.09;5093436;28;20130;-72
2023/07/16 01:42:57;;;;;;;97.50;93.18;;;;;;;25.39;37.62;100788.16;5092410;28;20547;-73
2023/07/16 01:45:23;;;;;;;97.95;93.50;;;;;;;25.37;37.39;100782.97;5092249;28;20032;-71
2023/07/16 01:48:00;;;;;;;97.55;93.25;;;;;;;25.35;37.61;100790.81;5075283;28;20042;-72
2023/07/16 01:50:26;;;;;;;97.72;93.00;;;;;;;25.32;37.31;100794.25;5093405;28;20032;-72
2023/07/16 01:52:52;;;;;;;96.13;91.65;;;;;;;25.30;37.85;100791.03;5093200;28;20040;-73
2023/07/16 01:55:17;;;;;;;95.65;91.15;;;;;;;25.28;37.47;100789.75;5092074;28;20134;-72
2023/07/16 01:57:43;;;;;;;99.22;94.82;;;;;;;25.25;37.42;100782.94;5075141;28;20081;-73
2023/07/16 02:00:09;;;;;;;94.68;90.13;;;;;;;25.23;37.97;100779.72;5093453;28;20452;-73
2023/07/16 02:02:34;;;;;;;98.30;93.90;;;;;;;25.21;37.80;100782.00;5075647;28;20036;-73
2023/07/16 02:04:59;;;;;;;95.07;90.70;;;;;;;25.18;37.69;100782.69;5075190;28;20032;-72
2023/07/16 02:07:25;;;;;;;93.95;89.72;;;;;;;25.16;37.84;100783.03;5092919;28;20039;-74
2023/07/16 02:09:50;;;;;;;97.00;92.63;;;;;;;25.13;37.55;100775.38;5093307;28;20079;-73
2023/07/16 02:12:15;;;;;;;96.35;91.15;;;;;;;25.10;37.64;100778.84;5093028;28;20035;-73
2023/07/16 02:14:41;;;;;;;96.43;91.82;;;;;;;25.08;38.17;100777.56;5093369;28;20084;-72
2023/07/16 02:17:06;;;;;;;94.43;90.32;;;;;;;25.05;37.73;100779.84;5093378;28;20036;-75
2023/07/16 02:19:32;;;;;;;95.60;91.22;;;;;;;25.03;37.74;100779.38;5093402;28;20074;-72
2023/07/16 02:21:57;;;;;;;97.05;92.32;;;;;;;25.01;38.01;100780.88;5092681;28;20333;-72
2023/07/16 02:24:23;;;;;;;98.13;93.43;;;;;;;24.99;38.00;100780.41;5074868;28;20086;-73
2023/07/16 02:26:48;;;;;;;98.78;94.22;;;;;;;24.96;37.90;100778.31;5092973;28;20063;-72
2023/07/16 02:29:14;;;;;;;95.20;90.57;;;;;;;24.93;38.29;100781.75;5091814;28;20107;-72
2023/07/16 02:31:39;;;;;;;95.88;91.50;;;;;;;24.91;38.03;100782.09;5091802;28;20467;-72
2023/07/16 02:34:04;;;;;;;96.15;91.88;;;;;;;24.87;38.07;100783.91;5093478;28;20036;-72
2023/07/16 02:36:30;;;;;;;91.65;87.45;;;;;;;24.86;37.85;100792.56;5091435;28;20032;-72
2023/07/16 02:38:55;;;;;;;92.65;88.55;;;;;;;24.83;38.19;100783.78;5091632;28;20523;-72
2023/07/16 02:41:21;;;;;;;100.25;94.82;;;;;;;24.81;37.91;100790.78;5093169;28;20527;-73
2023/07/16 02:43:46;;;;;;;90.47;86.28;;;;;;;24.78;38.00;100795.03;5092815;28;20040;-72
2023/07/16 02:46:12;;;;;;;91.05;87.10;;;;;;;24.76;38.11;100791.81;5092809;28;20472;-72
2023/07/16 02:48:37;;;;;;;95.15;90.72;;;;;;;24.74;38.22;100802.38;5092802;28;20036;-75
2023/07/16 02:51:03;;;;;;;91.05;86.78;;;;;;;24.72;38.10;100798.34;5092769;28;20078;-72
2023/07/16 02:53:28;;;;;;;97.55;93.00;;;;;;;24.69;38.17;100801.78;5092967;28;20111;-72
2023/07/16 02:55:54;;;;;;;98.18;93.53;;;;;;;24.67;38.59;100801.31;5092668;28;20028;-72
2023/07/16 02:58:19;;;;;;;91.93;87.82;;;;;;;24.64;38.52;100802.78;5091790;28;20036;-72
2023/07/16 03:00:44;;;;;;;91.00;86.97;;;;;;;24.61;38.22;100807.03;5092540;28;20024;-72
2023/07/16 03:03:10;;;;;;;97.93;93.53;;;;;;;24.59;37.99;100806.56;5092672;28;20097;-72
2023/07/16 03:05:35;;;;;;;92.18;87.65;;;;;;;24.56;38.51;100810.00;5095644;28;20363;-72
2023/07/16 03:08:00;;;;;;;90.32;86.22;;;;;;;24.53;38.38;100807.91;5096474;28;20325;-73
2023/07/16 03:10:26;;;;;;;90.53;86.22;;;;;;;24.51;38.28;100809.38;5096790;28;20032;-73
2023/07/16 03:12:52;;;;;;;91.65;87.32;;;;;;;24.49;38.29;100806.94;5095522;28;20036;-73
2023/07/16 03:15:18;;;;;;;91.00;86.57;;;;;;;24.47;38.80;100814.78;5096365;28;20064;-72
2023/07/16 03:17:43;;;;;;;91.32;87.00;;;;;;;24.44;38.56;100811.84;5095316;28;20414;-72
2023/07/16 03:20:09;;;;;;;93.30;89.03;;;;;;;24.40;38.57;100809.75;5077907;28;20035;-72
2023/07/16 03:22:35;;;;;;;92.88;88.57;;;;;;;24.39;38.75;100810.06;5095912;28;20522;-72
2023/07/16 03:25:00;;;;;;;90.32;85.55;;;;;;;24.37;38.58;100815.13;5095950;28;20136;-72
2023/07/16 03:27:26;;;;;;;96.35;91.85;;;;;;;24.35;38.71;100817.41;5095846;28;20100;-72
2023/07/16 03:29:51;;;;;;;89.68;85.07;;;;;;;24.34;38.38;100824.06;5095809;28;20039;-72
2023/07/16 03:32:17;;;;;;;89.72;85.63;;;;;;;24.31;38.46;100824.75;5095752;28;20035;-73
2023/07/16 03:34:42;;;;;;;91.10;86.57;;;;;;;24.28;38.41;100828.97;5077652;28;20036;-74
2023/07/16 03:37:07;;;;;;;90.85;86.10;;;;;;;24.26;38.45;100822.19;5095221;28;20182;-72
2023/07/16 03:39:33;;;;;;;93.78;89.47;;;;;;;24.24;38.80;100827.22;5094346;28;20032;-72
2023/07/16 03:41:58;;;;;;;86.60;82.60;;;;;;;24.21;38.75;100836.16;5095440;28;20035;-72
2023/07/16 03:44:24;;;;;;;90.43;86.18;;;;;;;24.18;38.50;100823.84;5095668;28;20044;-73
2023/07/16 03:46:49;;;;;;;87.82;83.93;;;;;;;24.17;38.40;100830.50;5094118;28;20070;-72
2023/07/16 03:49:14;;;;;;;90.45;85.90;;;;;;;24.15;38.35;100841.06;5095919;28;20024;-72
2023/07/16 03:51:40;;;;;;;86.22;81.78;;;;;;;24.12;38.92;100841.75;5095588;28;20123;-72
2023/07/16 03:54:05;;;;;;;84.63;80.45;;;;;;;24.10;38.58;100844.81;5095318;28;20349;-72
2023/07/16 03:56:31;;;;;;;84.28;80.30;;;;;;;24.07;38.32;100851.00;5095459;28;20487;-72
2023/07/16 03:58:56;;;;;;;88.22;84.18;;;;;;;24.05;38.64;100846.97;5093842;28;20464;-72
2023/07/16 04:01:21;;;;;;;83.97;80.07;;;;;;;24.05;38.79;100852.47;5093797;28;20028;-72
2023/07/16 04:03:47;;;;;;;83.93;80.07;;;;;;;24.02;38.37;100851.19;5095291;28;20460;-72
2023/07/16 04:06:14;;;;;;;84.40;80.45;;;;;;;23.99;38.67;100851.88;5094112;28;20093;-72
2023/07/16 04:08:39;;;;;;;86.75;82.72;;;;;;;23.97;38.30;100851.38;5093696;28;20384;-72
2023/07/16 04:11:06;;;;;;;87.07;82.88;;;;;;;23.95;38.52;100848.94;5076755;28;20436;-72
2023/07/16 04:13:32;;;;;;;85.70;81.25;;;;;;;23.93;38.59;100865.00;5093782;28;20119;-72
2023/07/16 04:15:58;;;;;;;87.53;83.30;;;;;;;23.91;38.36;100863.72;5095202;28;20031;-72
2023/07/16 04:18:24;;;;;;;85.03;80.88;;;;;;;23.89;38.35;100875.09;5095135;28;20028;-72
2023/07/16 04:20:50;;;;;;;85.85;81.90;;;;;;;23.86;38.78;100870.22;5094405;28;20107;-73
2023/07/16 04:23:15;;;;;;;82.93;79.03;;;;;;;23.84;38.48;100872.53;5094832;28;20066;-72
2023/07/16 04:25:41;;;;;;;88.80;84.65;;;;;;;23.82;38.54;100869.28;5095213;28;20051;-71
2023/07/16 04:28:06;;;;;;;84.35;80.30;;;;;;;23.80;38.84;100874.31;5094575;28;20020;-71
2023/07/16 04:30:31;;;;;;;86.57;82.50;;;;;;;23.77;38.80;100883.25;5094589;28;20033;-71
2023/07/16 04:32:57;;;;;;;84.07;80.07;;;;;;;23.75;38.44;100883.56;5093209;28;20043;-71
2023/07/16 04:35:22;;;;;;;87.10;82.63;;;;;;;23.73;38.22;100885.84;5094436;28;20499;-71
2023/07/16 04:37:48;;;;;;;86.97;82.88;;;;;;;23.70;38.36;100880.94;5094365;28;20470;-74
2023/07/16 04:40:13;;;;;;;86.53;82.20;;;;;;;23.68;38.26;100883.22;5093500;28;20042;-72
2023/07/16 04:42:38;;;;;;;83.20;79.35;;;;;;;23.66;38.53;100891.03;5094437;28;20048;-71
2023/07/16 04:45:05;;;;;;;84.53;80.50;;;;;;;23.63;38.34;100888.09;5094233;28;20085;-70
2023/07/16 04:47:31;;;;;;;85.50;81.38;;;;;;;23.63;38.35;100896.38;5094163;28;20468;-71
2023/07/16 04:49:58;;;;;;;84.03;79.93;;;;;;;23.61;38.28;100901.41;5093848;28;20035;-71
2023/07/16 04:52:24;;;;;;;86.00;81.63;;;;;;;23.58;38.69;100911.13;5094087;28;20032;-71
2023/07/16 04:54:49;;;;;;;83.57;79.25;;;;;;;23.58;38.25;100915.84;5094419;28;20126;-73
2023/07/16 04:57:15;;;;;;;84.95;81.00;;;;;;;23.55;38.63;100915.34;5094118;28;20383;-71
2023/07/16 04:59:40;;;;;;;84.47;79.93;;;;;;;23.52;38.50;100913.25;5092880;28;20036;-71
2023/07/16 05:02:06;;;;;;;86.80;82.70;;;;;;;23.51;38.65;100919.09;5092787;28;20042;-70
2023/07/16 05:04:33;;;;;;;84.13;80.13;;;;;;;23.50;38.37;100928.50;5093944;28;20099;-71
2023/07/16 05:06:58;;;;;;;85.75;81.50;;;;;;;23.48;38.78;100930.78;5093885;28;20082;-71
2023/07/16 05:09:23;;;;;;;82.57;78.80;;;;;;;23.47;38.80;100929.16;5093759;28;20028;-71
2023/07/16 05:11:49;;;;;;;84.95;80.55;;;;;;;23.44;38.41;100929.81;5093601;28;20024;-73
2023/07/16 05:14:14;;;;;;;81.07;77.22;;;;;;;23.43;38.29;100926.22;5093743;28;20024;-71
2023/07/16 05:16:40;;;;;;;82.65;78.70;;;;;;;23.42;38.52;100926.56;5094185;28;20033;-71
2023/07/16 05:19:05;;;;;;;83.95;79.95;;;;;;;23.41;38.43;100930.44;5092394;28;20028;-71
2023/07/16 05:21:30;;;;;;;87.05;81.88;;;;;;;23.39;38.34;100936.31;5093631;28;20090;-71
2023/07/16 05:23:56;;;;;;;84.70;80.53;;;;;;;23.39;38.58;100933.56;5093755;28;20159;-72
2023/07/16 05:26:21;;;;;;;84.63;80.03;;;;;;;23.36;38.90;100942.47;5092122;28;20472;-72
2023/07/16 05:28:47;;;;;;;83.63;79.70;;;;;;;23.36;38.90;100938.88;5093385;28;20040;-72
2023/07/16 05:31:12;;;;;;;87.82;83.40;;;;;;;23.37;38.45;100943.28;5093504;28;20047;-72
2023/07/16 05:33:37;;;;;;;82.20;78.20;;;;;;;23.35;38.71;100942.78;5091843;28;20035;-72
2023/07/16 05:36:03;;;;;;;82.57;78.78;;;;;;;23.35;38.79;100946.34;5093660;28;20032;-72
2023/07/16 05:38:29;;;;;;;83.03;79.20;;;;;;;23.35;38.92;100945.53;5093698;28;20095;-72
2023/07/16 05:41:01;;;;;;;84.03;79.72;;;;;;;23.35;38.65;100953.81;5092168;28;20035;-72
2023/07/16 05:43:26;;;;;;;81.90;77.85;;;;;;;23.36;38.97;100955.41;5093848;28;20374;-72
2023/07/16 05:45:51;;;;;;;83.78;79.68;;;;;;;23.35;38.62;100962.09;5093598;28;20460;-72
2023/07/16 05:48:17;;;;;;;81.65;77.70;;;;;;;23.35;38.83;100959.31;5092033;28;20028;-71
2023/07/16 05:50:44;;;;;;;84.32;79.97;;;;;;;23.35;38.62;100971.16;5093127;28;20036;-71
2023/07/16 05:53:10;;;;;;;83.28;79.35;;;;;;;23.35;38.61;100959.31;5093030;28;20024;-72
2023/07/16 05:55:35;;;;;;;81.22;77.63;;;;;;;23.34;38.52;100966.78;5092438;28;20073;-72
2023/07/16 05:58:01;;;;;;;82.38;78.15;;;;;;;23.35;38.53;100968.41;5058077;28;20047;-72
2023/07/16 06:00:26;;;;;;;82.95;78.97;;;;;;;23.36;38.83;100958.19;5092271;28;20111;-72
2023/07/16 06:02:51;;;;;;;83.00;79.13;;;;;;;23.36;38.58;100963.69;5093432;28;20032;-74
2023/07/16 06:05:17;;;;;;;84.20;79.45;;;;;;;23.36;38.91;100953.50;5093310;28;20038;-72
2023/07/16 06:07:43;;;;;;;81.85;77.95;;;;;;;23.36;38.54;100956.25;5093065;28;20032;-72
2023/07/16 06:10:09;;;;;;;84.95;80.55;;;;;;;23.36;38.58;100952.66;5093556;28;20467;-72
2023/07/16 06:12:34;;;;;;;80.85;77.15;;;;;;;23.37;38.91;100960.63;5092919;28;20042;-72
2023/07/16 06:15:00;;;;;;;80.68;76.85;;;;;;;23.38;38.70;100950.41;5091771;28;20038;-73
2023/07/16 06:17:25;;;;;;;84.20;80.13;;;;;;;23.37;39.13;100966.13;5093034;28;20111;-72
2023/07/16 06:19:51;;;;;;;85.25;81.10;;;;;;;23.39;38.53;100974.09;5093312;28;20059;-73
2023/07/16 06:22:17;;;;;;;87.50;83.22;;;;;;;23.38;38.86;100973.25;5093024;28;20032;-72
2023/07/16 06:24:43;;;;;;;82.50;78.15;;;;;;;23.38;38.96;100966.94;5092776;28;20048;-72
2023/07/16 06:27:08;;;;;;;85.40;80.88;;;;;;;23.37;39.02;100976.34;5093200;28;20035;-72
2023/07/16 06:29:33;;;;;;;81.43;77.72;;;;;;;23.37;39.24;100970.84;5093107;28;20044;-72
2023/07/16 06:31:59;;;;;;;83.15;79.20;;;;;;;23.36;38.68;100970.03;5093098;28;20426;-72
2023/07/16 06:34:25;;;;;;;82.20;78.05;;;;;;;23.36;38.99;100985.75;5092834;28;20525;-72
2023/07/16 06:36:51;;;;;;;81.63;77.43;;;;;;;23.37;39.02;100990.13;5091934;28;20415;-72
2023/07/16 06:39:16;;;;;;;85.28;80.57;;;;;;;23.37;39.35;100987.38;5093847;28;20060;-72
2023/07/16 06:41:42;;;;;;;82.75;78.43;;;;;;;23.38;39.39;100995.31;5096979;28;20036;-72
2023/07/16 06:44:07;;;;;;;86.28;81.95;;;;;;;23.40;39.40;100997.75;5096634;28;20448;-72
2023/07/16 06:46:33;;;;;;;83.28;78.95;;;;;;;23.40;39.31;101006.84;5096258;28;20043;-72
2023/07/16 06:48:58;;;;;;;81.70;77.88;;;;;;;23.43;39.23;101008.13;5096663;28;20055;-71
2023/07/16 06:51:24;;;;;;;81.72;77.53;;;;;;;23.45;39.69;101012.19;5078356;28;20471;-71
2023/07/16 06:53:49;;;;;;;80.18;76.47;;;;;;;23.48;39.28;101013.50;5096520;28;20119;-72
2023/07/16 06:56:15;;;;;;;82.93;78.63;;;;;;;23.48;39.30;101014.28;5096375;28;20111;-72
2023/07/16 06:58:40;;;;;;;84.55;80.32;;;;;;;23.51;39.28;101029.38;5095657;28;20035;-72
2023/07/16 07:01:06;;;;;;;85.80;81.30;;;;;;;23.52;39.32;101023.56;5094936;28;20063;-72
2023/07/16 07:03:33;;;;;;;83.05;78.97;;;;;;;23.56;39.90;101026.47;5095967;28;20119;-72
2023/07/16 07:06:02;;;;;;;86.05;81.88;;;;;;;23.57;39.44;101028.09;5096185;28;20468;-72
2023/07/16 07:08:27;;;;;;;84.07;79.80;;;;;;;23.61;39.42;101031.00;5096097;28;20028;-72
2023/07/16 07:10:53;;;;;;;82.63;78.82;;;;;;;23.63;39.71;101031.50;5096134;28;20364;-72
2023/07/16 07:13:18;;;;;;;86.22;81.70;;;;;;;23.65;39.42;101037.50;5095652;28;20024;-72
2023/07/16 07:15:44;;;;;;;84.95;80.85;;;;;;;23.67;40.07;101029.72;5096491;28;20032;-72
2023/07/16 07:18:09;;;;;;;85.03;80.78;;;;;;;23.68;40.02;101029.38;5095903;28;20036;-72
2023/07/16 07:20:34;;;;;;;85.75;81.43;;;;;;;23.71;39.91;101031.53;5094700;28;20085;-72
2023/07/16 07:23:02;;;;;;;87.47;82.70;;;;;;;23.73;40.15;101032.00;5095957;28;20396;-72
2023/07/16 07:25:28;;;;;;;85.10;81.07;;;;;;;23.76;39.78;101036.06;5095896;28;20530;-72
2023/07/16 07:27:54;;;;;;;88.40;83.72;;;;;;;23.79;39.83;101026.34;5094824;28;20119;-72
2023/07/16 07:30:19;;;;;;;86.85;82.15;;;;;;;23.82;40.09;101025.69;5094560;28;20395;-72
2023/07/16 07:32:45;;;;;;;88.10;83.10;;;;;;;23.85;40.22;101027.81;5094586;28;20395;-72
2023/07/16 07:35:11;;;;;;;87.60;83.25;;;;;;;23.88;40.03;101036.22;5095706;28;20031;-73
2023/07/16 07:37:36;;;;;;;88.57;84.28;;;;;;;23.89;40.22;101043.38;5095731;28;20043;-73
2023/07/16 07:40:03;;;;;;;87.80;83.35;;;;;;;23.92;40.03;101037.22;5095646;28;20025;-71
2023/07/16 07:42:29;;;;;;;87.40;82.93;;;;;;;23.95;40.24;101036.56;5094188;28;20040;-72
2023/07/16 07:44:54;;;;;;;88.32;84.38;;;;;;;23.98;40.21;101037.84;5094184;28;20020;-71
2023/07/16 07:47:20;;;;;;;90.40;86.03;;;;;;;24.01;40.16;101039.16;5095504;28;20391;-72
2023/07/16 07:49:46;;;;;;;91.57;86.40;;;;;;;24.04;40.24;101038.47;5093772;28;20181;-73
2023/07/16 07:52:11;;;;;;;88.72;84.57;;;;;;;24.07;40.93;101035.91;5093939;28;20039;-72
2023/07/16 07:54:36;;;;;;;86.60;82.65;;;;;;;24.11;40.43;101049.84;5077203;28;20361;-71
2023/07/16 07:57:03;;;;;;;89.53;85.00;;;;;;;24.15;40.54;101046.09;5094098;28;20460;-72
2023/07/16 07:59:29;;;;;;;89.63;85.30;;;;;;;24.18;40.78;101041.88;5095010;28;20105;-72
2023/07/16 08:01:55;;;;;;;88.72;83.93;;;;;;;24.23;40.50;101047.22;5094035;28;20076;-71
2023/07/16 08:04:20;;;;;;;88.85;84.10;;;;;;;24.28;40.72;101049.00;5095187;28;20456;-72
2023/07/16 08:06:46;;;;;;;90.93;86.32;;;;;;;24.31;40.95;101053.88;5095490;28;20515;-72
2023/07/16 08:09:11;;;;;;;91.13;86.50;;;;;;;24.35;40.51;101050.13;5094367;28;20051;-72
2023/07/16 08:11:37;;;;;;;93.55;89.07;;;;;;;24.39;40.56;101050.25;5094822;28;20032;-73
2023/07/16 08:14:02;;;;;;;91.38;86.88;;;;;;;24.44;40.83;101052.84;5077600;28;20357;-73
2023/07/16 08:16:27;;;;;;;91.63;87.00;;;;;;;24.47;41.00;101049.50;5093711;28;20028;-72
2023/07/16 08:18:53;;;;;;;90.13;85.90;;;;;;;24.52;40.69;101054.84;5093477;28;20059;-72
2023/07/16 08:21:19;;;;;;;93.10;88.72;;;;;;;24.57;41.02;101060.19;5076838;28;20111;-72
2023/07/16 08:23:46;;;;;;;96.95;92.18;;;;;;;24.63;40.46;101055.28;5094897;28;20499;-74
2023/07/16 08:26:12;;;;;;;93.10;88.78;;;;;;;24.68;40.61;101057.06;5054282;28;20085;-75
2023/07/16 08:28:38;;;;;;;93.45;88.85;;;;;;;24.73;40.45;101063.19;5053949;28;20029;-73
2023/07/16 08:31:03;;;;;;;97.05;92.55;;;;;;;24.77;40.72;101066.09;5054249;28;20489;-72
2023/07/16 08:33:29;;;;;;;94.45;90.05;;;;;;;24.82;40.96;101063.97;5054228;28;20064;-72
2023/07/16 08:35:54;;;;;;;97.60;92.78;;;;;;;24.87;40.68;101073.22;5036402;28;20029;-73
2023/07/16 08:38:19;;;;;;;93.80;89.45;;;;;;;24.92;41.09;101067.50;5053176;28;20495;-73
2023/07/16 08:40:47;;;;;;;95.80;91.22;;;;;;;24.97;40.48;101070.06;5036551;28;20036;-74
2023/07/16 08:43:15;;;;;;;90.55;86.00;;;;;;;25.01;40.87;101077.38;5054582;28;20043;-74
2023/07/16 08:45:44;;;;;;;93.20;89.00;;;;;;;25.06;40.48;101079.16;5054236;28;20033;-71
2023/07/16 08:48:10;;;;;;;101.03;96.15;;;;;;;25.11;40.71;101073.44;5053178;28;20024;-73
2023/07/16 08:50:37;;;;;;;96.70;91.97;;;;;;;25.16;40.76;101077.97;5054387;28;20059;-72
2023/07/16 08:53:05;;;;;;;102.18;96.80;;;;;;;25.20;40.13;101079.75;5054700;28;20032;-72
2023/07/16 08:55:30;;;;;;;98.63;94.00;;;;;;;25.24;40.46;101091.75;5053590;28;20029;-72
2023/07/16 08:57:57;;;;;;;99.75;95.18;;;;;;;25.28;40.44;101094.69;5052637;28;20041;-72
2023/07/16 09:00:25;;;;;;;98.60;94.20;;;;;;;25.32;40.57;101089.28;5052312;28;20114;-73
2023/07/16 09:02:52;;;;;;;100.50;95.28;;;;;;;25.36;40.17;101085.53;5053000;28;20465;-73
2023/07/16 09:05:20;;;;;;;100.30;95.82;;;;;;;25.40;40.43;101088.41;5053690;28;20033;-73
2023/07/16 09:07:46;;;;;;;;;;;;;;;25.44;40.73;101086.59;5053041;28;20095;-73
2023/07/16 09:10:12;;;;;;;92.85;88.20;;;;;;;25.46;40.55;101090.66;5069080;28;20280;-73
2023/07/16 09:12:45;;;;;;;98.75;94.32;;;;;;;25.51;40.30;101097.16;5053709;28;20041;-75
2023/07/16 09:15:12;;;;;;;95.40;90.82;;;;;;;25.54;40.36;101091.75;5053957;28;20029;-72
2023/07/16 09:17:38;;;;;;;104.40;99.47;;;;;;;25.57;40.08;101088.31;5053734;28;20441;-73
2023/07/16 09:20:05;;;;;;;100.07;95.57;;;;;;;25.61;40.23;101089.25;5053937;28;20051;-74
2023/07/16 09:22:31;;;;;;;102.63;98.00;;;;;;;25.64;39.99;101094.13;5053525;28;20103;-73
2023/07/16 09:24:57;;;;;;;99.53;95.07;;;;;;;25.68;40.27;101095.06;5071508;28;20294;-73
2023/07/16 09:27:29;;;;;;;98.97;94.38;;;;;;;25.73;40.00;101098.75;5093494;28;20066;-72
2023/07/16 09:29:54;;;;;;;97.90;93.15;;;;;;;25.78;40.09;101102.16;5093559;28;20032;-73
2023/07/16 09:32:20;;;;;;;101.53;96.85;;;;;;;25.81;39.67;101109.78;5093660;28;20031;-76
2023/07/16 09:34:49;;;;;;;99.88;94.60;;;;;;;25.84;39.92;101103.56;5093426;28;20048;-73
2023/07/16 09:37:17;;;;;;;105.85;100.55;;;;;;;25.87;39.85;101107.66;5093518;28;20045;-73
2023/07/16 09:39:46;;;;;;;106.07;101.25;;;;;;;25.90;39.87;101101.44;5091923;28;20397;-72
2023/07/16 09:42:12;;;;;;;106.93;101.80;;;;;;;25.93;39.80;101108.25;5093518;28;20032;-73
2023/07/16 09:44:38;;;;;;;100.82;96.25;;;;;;;25.96;39.95;101108.41;5092823;28;20059;-74
2023/07/16 09:47:03;;;;;;;101.45;96.78;;;;;;;25.99;39.89;101104.94;5093385;28;20138;-73
2023/07/16 09:49:30;;;;;;;109.50;104.15;;;;;;;26.03;39.57;101116.13;5093486;28;20115;-73
2023/07/16 09:52:01;;;;;;;105.10;100.00;;;;;;;26.05;39.57;101111.88;5092930;28;20114;-73
2023/07/16 09:54:31;;;;;;;109.53;104.45;;;;;;;26.08;39.28;101104.84;5093335;28;20028;-72
2023/07/16 09:56:59;;;;;;;108.68;103.78;;;;;;;26.10;39.20;101117.22;5093054;28;20062;-73
2023/07/16 09:59:30;;;;;;;100.28;95.72;;;;;;;26.14;39.55;101120.13;5093395;28;20089;-71
2023/07/16 10:01:59;;;;;;;106.28;101.28;;;;;;;26.16;39.32;101140.00;5093160;28;20028;-73
2023/07/16 10:04:25;;;;;;;102.28;97.22;;;;;;;26.19;39.22;101131.00;5091539;28;20112;-74
2023/07/16 10:06:59;;;;;;;107.20;102.35;;;;;;;26.21;39.18;101128.69;5093213;28;20137;-72
2023/07/16 10:09:56;;;;;;;113.47;107.68;;;;;;;26.24;39.18;101141.88;5075551;28;20031;-74
2023/07/16 10:12:23;;;;;;;101.40;96.70;;;;;;;26.27;39.08;101140.38;5091041;28;20097;-73
2023/07/16 10:14:51;;;;;;;105.43;100.13;;;;;;;26.29;39.32;101149.97;5095947;28;20034;-73
2023/07/16 10:17:24;;;;;;;103.53;98.60;;;;;;;26.32;38.99;101146.50;5097617;28;20032;-74
2023/07/16 10:20:12;;;;;;;107.07;102.22;;;;;;;26.36;39.00;101148.59;5095928;28;20028;-72
2023/07/16 10:22:39;;;;;;;;;;;;;;;26.37;38.99;101164.88;5096575;28;20039;-73
2023/07/16 10:25:08;;;;;;;100.15;95.40;;;;;;;26.39;38.95;101150.69;5095749;28;19926;-72
2023/07/16 11:19:20;;;;;;;106.95;101.30;;;;;;;26.82;38.33;101216.00;5837157;22;20061;-63
2023/07/16 11:21:45;;;;;;;106.95;101.68;;;;;;;26.83;38.17;101223.16;5051836;28;20486;-64
2023/07/16 11:24:15;;;;;;;110.13;105.13;;;;;;;26.83;38.24;101228.69;5041177;28;20025;-64
2023/07/16 11:26:52;;;;;;;103.85;98.95;;;;;;;26.84;38.21;101236.69;5049786;28;20040;-63
2023/07/16 11:29:18;;;;;;;107.78;102.63;;;;;;;26.85;38.37;101229.97;5042460;28;20021;-72
2023/07/16 11:31:43;;;;;;;105.00;100.10;;;;;;;26.87;38.29;101243.50;5040993;28;20088;-70
2023/07/16 11:34:13;;;;;;;105.97;101.07;;;;;;;26.87;38.30;101244.31;5033000;28;20334;-70
2023/07/16 11:36:38;;;;;;;105.30;100.35;;;;;;;26.89;38.61;101246.75;5034207;28;20037;-69
2023/07/16 11:39:04;;;;;;;107.88;102.93;;;;;;;26.89;38.73;101243.97;5026677;28;20043;-69
2023/07/16 11:41:30;;;;;;;107.38;102.20;;;;;;;26.90;38.97;101246.38;5049195;28;20128;-70
2023/07/16 11:44:00;;;;;;;108.35;103.55;;;;;;;26.92;38.60;101249.63;5033892;28;20037;-69
2023/07/16 11:46:32;;;;;;;109.65;104.60;;;;;;;26.93;38.63;101245.69;5033790;28;20349;-69
2023/07/16 11:48:57;;;;;;;106.28;101.50;;;;;;;26.97;38.63;101252.19;5034208;28;20030;-69
2023/07/16 11:51:22;;;;;;;106.20;101.40;;;;;;;26.99;38.64;101251.84;5045882;28;20049;-67
2023/07/16 11:53:48;;;;;;;109.70;104.40;;;;;;;27.01;38.88;101248.72;5048555;28;20477;-70
2023/07/16 11:56:13;;;;;;;109.35;104.07;;;;;;;27.02;38.50;101262.25;5050769;28;20049;-69